Time;durP1;ratioP1;P1;durP2;ratioP2;P2;SDS_P1;SDS_P2;PMS_P1;PMS_P2;Temp;Humidity;BMP_temperature;BMP_pressure;BME280_temperature;BME280_humidity;BME280_pressure;Samples;Min_cycle;Max_cycle;Signal;HPM_P1;HPM_P2
2023/03/12 00:01:41;;;;;;;11.30;7.10;;;;;;;;;;4896073;29;20421;-82
2023/03/12 00:08:03;;;;;;;16.65;7.18;;;;;;;;;;4874249;29;20917;-82
2023/03/12 00:10:31;;;;;;;13.13;7.15;;;;;;;;;;4867540;29;20460;-82
2023/03/12 00:13:09;;;;;;;12.75;7.18;;;;;;;;;;4913587;29;20432;-82
2023/03/12 00:15:43;;;;;;;10.60;6.80;;;;;;;;;;4917107;29;20423;-82
2023/03/12 00:18:13;;;;;;;14.82;7.45;;;;;;;;;;4931364;29;20923;-82
2023/03/12 00:20:39;;;;;;;13.02;7.63;;;;;;;;;;4914114;29;20445;-82
2023/03/12 00:23:09;;;;;;;12.45;7.72;;;;;;;;;;4931341;29;20925;-82
2023/03/12 00:25:35;;;;;;;13.93;8.27;;;;;;;;;;4916089;29;20446;-82
2023/03/12 00:28:01;;;;;;;13.07;8.00;;;;;;;;;;4914153;29;20448;-82
2023/03/12 00:30:28;;;;;;;14.43;8.10;;;;;;;;;;4905140;29;20439;-82
2023/03/12 00:32:59;;;;;;;12.82;7.97;;;;;;;;;;4917017;29;20428;-82
2023/03/12 00:35:25;;;;;;;11.73;8.07;;;;;;;;;;4916066;29;20498;-82
2023/03/12 00:37:51;;;;;;;16.30;8.18;;;;;;;;;;4916167;29;20438;-82
2023/03/12 00:40:18;;;;;;;13.48;8.00;;;;;;;;;;4915575;29;20464;-83
2023/03/12 00:42:44;;;;;;;14.43;9.07;;;;;;;;;;4908180;29;20433;-83
2023/03/12 00:45:10;;;;;;;16.13;9.75;;;;;;;;;;4914975;29;20437;-83
2023/03/12 00:47:36;;;;;;;13.77;8.10;;;;;;;;;;4903544;29;20464;-82
2023/03/12 00:50:03;;;;;;;13.18;8.25;;;;;;;;;;4921541;29;20524;-81
2023/03/12 00:52:32;;;;;;;14.88;8.02;;;;;;;;;;4920667;29;20415;-81
2023/03/12 00:55:01;;;;;;;13.15;8.27;;;;;;;;;;4916913;29;20430;-82
2023/03/12 00:57:27;;;;;;;12.85;8.45;;;;;;;;;;4933406;29;20791;-82
2023/03/12 00:59:53;;;;;;;13.70;8.40;;;;;;;;;;4918969;29;20947;-82
2023/03/12 01:02:19;;;;;;;18.35;9.55;;;;;;;;;;4917986;29;20459;-82
2023/03/12 01:04:45;;;;;;;14.23;8.40;;;;;;;;;;4917054;29;20425;-81
2023/03/12 01:07:12;;;;;;;13.73;8.65;;;;;;;;;;4916198;29;20910;-81
2023/03/12 01:09:41;;;;;;;17.27;8.70;;;;;;;;;;4900289;29;20476;-81
2023/03/12 01:12:07;;;;;;;14.23;8.65;;;;;;;;;;4903512;29;20426;-81
2023/03/12 01:14:33;;;;;;;15.40;8.82;;;;;;;;;;4932454;29;20940;-81
2023/03/12 01:16:59;;;;;;;15.97;8.97;;;;;;;;;;4934850;29;20757;-81
2023/03/12 01:19:25;;;;;;;17.65;9.65;;;;;;;;;;4909079;29;20433;-80
2023/03/12 01:21:51;;;;;;;14.27;8.88;;;;;;;;;;4922957;29;20435;-80
2023/03/12 01:24:18;;;;;;;16.33;9.10;;;;;;;;;;4907811;29;20575;-80
2023/03/12 01:26:44;;;;;;;15.30;9.38;;;;;;;;;;4916167;29;20444;-81
2023/03/12 01:29:10;;;;;;;15.82;9.63;;;;;;;;;;4926533;29;20510;-81
2023/03/12 01:31:36;;;;;;;16.65;9.18;;;;;;;;;;4900339;29;20436;-80
2023/03/12 01:34:02;;;;;;;15.02;9.30;;;;;;;;;;4906263;29;20427;-81
2023/03/12 01:36:29;;;;;;;17.20;9.52;;;;;;;;;;4932921;29;20572;-81
2023/03/12 01:38:59;;;;;;;14.98;9.25;;;;;;;;;;4934437;29;20478;-81
2023/03/12 01:41:27;;;;;;;16.85;9.18;;;;;;;;;;4902954;29;20504;-81
2023/03/12 01:43:53;;;;;;;15.07;8.85;;;;;;;;;;4931819;29;20871;-81
2023/03/12 01:46:23;;;;;;;16.10;9.32;;;;;;;;;;4919928;29;20419;-81
2023/03/12 01:49:15;;;;;;;16.85;8.80;;;;;;;;;;4918537;29;20433;-80
2023/03/12 01:51:50;;;;;;;16.25;9.85;;;;;;;;;;4900798;29;20428;-80
2023/03/12 01:54:20;;;;;;;16.23;9.43;;;;;;;;;;4920127;29;20453;-80
2023/03/12 01:56:46;;;;;;;16.15;9.65;;;;;;;;;;4932107;29;20915;-80
2023/03/12 01:59:19;;;;;;;17.57;9.73;;;;;;;;;;4913226;29;20510;-80
2023/03/12 02:01:46;;;;;;;17.02;9.98;;;;;;;;;;4939828;29;20422;-81
2023/03/12 02:04:13;;;;;;;14.43;9.00;;;;;;;;;;4921700;29;22119;-81
2023/03/12 02:06:45;;;;;;;16.23;9.13;;;;;;;;;;4922521;29;20419;-81
2023/03/12 02:09:11;;;;;;;20.88;9.77;;;;;;;;;;4919176;29;20769;-81
2023/03/12 02:11:37;;;;;;;12.02;8.50;;;;;;;;;;4922407;29;20412;-81
2023/03/12 02:14:03;;;;;;;14.43;8.20;;;;;;;;;;4905502;29;20474;-81
2023/03/12 02:16:30;;;;;;;13.25;8.40;;;;;;;;;;4919443;29;20514;-81
2023/03/12 02:19:00;;;;;;;12.38;8.23;;;;;;;;;;4917443;29;20922;-82
2023/03/12 02:21:28;;;;;;;10.48;7.05;;;;;;;;;;4917689;29;20435;-81
2023/03/12 02:24:13;;;;;;;9.85;7.05;;;;;;;;;;4933028;29;20427;-81
2023/03/12 02:26:39;;;;;;;13.98;7.60;;;;;;;;;;4921163;29;20416;-81
2023/03/12 02:29:06;;;;;;;12.88;6.97;;;;;;;;;;4923724;29;20862;-81
2023/03/12 02:31:35;;;;;;;11.48;7.18;;;;;;;;;;4931031;29;20431;-81
2023/03/12 02:34:01;;;;;;;13.48;6.90;;;;;;;;;;4934976;29;20412;-81
2023/03/12 02:36:27;;;;;;;12.52;6.85;;;;;;;;;;4902131;29;20431;-81
2023/03/12 02:38:54;;;;;;;11.18;6.50;;;;;;;;;;4934182;29;20454;-81
2023/03/12 02:41:25;;;;;;;11.98;6.43;;;;;;;;;;4915619;29;20418;-81
2023/03/12 02:44:01;;;;;;;10.52;6.50;;;;;;;;;;4900034;29;20918;-82
2023/03/12 02:46:28;;;;;;;9.82;6.22;;;;;;;;;;4919815;29;20424;-82
2023/03/12 02:48:56;;;;;;;11.80;6.10;;;;;;;;;;4918315;29;20438;-82
2023/03/12 02:51:22;;;;;;;10.80;6.05;;;;;;;;;;4906108;29;20437;-82
2023/03/12 02:53:53;;;;;;;12.88;6.20;;;;;;;;;;4917285;29;20435;-82
2023/03/12 02:56:28;;;;;;;10.02;6.22;;;;;;;;;;4915095;29;20910;-82
2023/03/12 02:58:55;;;;;;;9.68;5.80;;;;;;;;;;4916479;29;20412;-83
2023/03/12 03:01:21;;;;;;;8.82;5.72;;;;;;;;;;4926392;29;20954;-82
2023/03/12 03:03:47;;;;;;;11.38;5.75;;;;;;;;;;4917201;29;20490;-83
2023/03/12 03:06:13;;;;;;;10.20;5.35;;;;;;;;;;4927374;29;20431;-82
2023/03/12 03:08:39;;;;;;;13.05;5.80;;;;;;;;;;4915030;29;20501;-82
2023/03/12 03:11:06;;;;;;;12.27;5.80;;;;;;;;;;4916190;29;20432;-82
2023/03/12 03:13:33;;;;;;;9.25;5.55;;;;;;;;;;4934118;29;20471;-82
2023/03/12 03:16:02;;;;;;;11.47;5.50;;;;;;;;;;4902250;29;20477;-83
2023/03/12 03:18:37;;;;;;;10.60;5.68;;;;;;;;;;4911296;29;20430;-83
2023/03/12 03:21:05;;;;;;;10.73;5.40;;;;;;;;;;4916959;29;20434;-83
2023/03/12 03:23:43;;;;;;;8.57;5.45;;;;;;;;;;4918479;29;20453;-83
2023/03/12 03:30:07;;;;;;;10.73;5.97;;;;;;;;;;4936204;29;20788;-82
2023/03/12 03:33:11;;;;;;;12.10;5.82;;;;;;;;;;4937493;29;20441;-82
2023/03/12 03:35:56;;;;;;;10.33;5.50;;;;;;;;;;4942643;29;20430;-83
2023/03/12 03:38:59;;;;;;;12.87;5.90;;;;;;;;;;4923565;29;20397;-82
2023/03/12 03:41:36;;;;;;;10.23;5.30;;;;;;;;;;4928481;29;20530;-82
2023/03/12 03:44:08;;;;;;;11.77;5.50;;;;;;;;;;4908304;29;20433;-82
2023/03/12 03:49:52;;;;;;;15.70;5.50;;;;;;;;;;4897930;29;20521;-83
2023/03/12 03:52:33;;;;;;;11.88;5.75;;;;;;;;;;4905911;29;20798;-82
2023/03/12 03:55:32;;;;;;;10.35;5.65;;;;;;;;;;4898573;29;20449;-84
2023/03/12 03:58:01;;;;;;;10.98;5.50;;;;;;;;;;4808083;29;20428;-84
2023/03/12 04:00:27;;;;;;;14.07;5.85;;;;;;;;;;4821129;29;20523;-83
2023/03/12 04:02:56;;;;;;;12.35;5.60;;;;;;;;;;4832954;29;20466;-83
2023/03/12 04:05:28;;;;;;;12.25;6.47;;;;;;;;;;4845042;29;20455;-83
2023/03/12 04:08:21;;;;;;;11.63;5.55;;;;;;;;;;4841769;29;20438;-83
2023/03/12 04:11:08;;;;;;;12.63;5.65;;;;;;;;;;4829257;29;20452;-83
2023/03/12 04:13:37;;;;;;;12.27;6.15;;;;;;;;;;4844382;29;20955;-83
2023/03/12 04:16:29;;;;;;;;;;;;;;;;;;;;;
2023/03/12 04:19:08;;;;;;;10.10;6.07;;;;;;;;;;4869827;29;20894;-84
2023/03/12 04:21:38;;;;;;;12.98;7.32;;;;;;;;;;4847402;29;20432;-83
2023/03/12 04:24:14;;;;;;;11.20;6.50;;;;;;;;;;4845649;29;20436;-83
2023/03/12 04:26:43;;;;;;;13.02;6.63;;;;;;;;;;4863843;29;20471;-83
2023/03/12 04:29:18;;;;;;;12.63;6.30;;;;;;;;;;4848794;29;20444;-84
2023/03/12 04:31:55;;;;;;;;;;;;;;;;;;;;;
2023/03/12 04:34:34;;;;;;;10.73;5.93;;;;;;;;;;4890682;29;20550;-84
2023/03/12 04:37:19;;;;;;;10.20;5.85;;;;;;;;;;4919855;29;20435;-85
2023/03/12 04:39:45;;;;;;;10.43;6.03;;;;;;;;;;4920808;29;20419;-84
2023/03/12 04:42:42;;;;;;;11.23;6.30;;;;;;;;;;4875366;29;20428;-84
2023/03/12 04:45:19;;;;;;;12.50;6.32;;;;;;;;;;4848245;29;20441;-84
2023/03/12 04:48:03;;;;;;;12.40;6.25;;;;;;;;;;4847238;29;20512;-85
2023/03/12 04:50:43;;;;;;;9.93;6.45;;;;;;;;;;4878861;29;20452;-84
2023/03/12 04:53:43;;;;;;;10.95;5.97;;;;;;;;;;4879459;29;20498;-84
2023/03/12 04:56:15;;;;;;;10.82;6.35;;;;;;;;;;4919837;29;20415;-84
2023/03/12 04:58:57;;;;;;;11.02;6.30;;;;;;;;;;4935779;29;20900;-85
2023/03/12 05:04:33;;;;;;;10.95;6.32;;;;;;;;;;4887156;29;20429;-84
2023/03/12 05:07:07;;;;;;;10.82;6.38;;;;;;;;;;4904977;29;20915;-85
2023/03/12 05:09:43;;;;;;;10.82;6.30;;;;;;;;;;4914401;29;20482;-85
2023/03/12 05:12:40;;;;;;;12.57;6.53;;;;;;;;;;4918530;29;20438;-85
2023/03/12 05:15:07;;;;;;;9.63;6.10;;;;;;;;;;4903356;29;20640;-84
2023/03/12 05:17:59;;;;;;;10.43;6.22;;;;;;;;;;4903537;29;20451;-84
2023/03/12 05:20:26;;;;;;;11.55;6.50;;;;;;;;;;4908904;29;20435;-84
2023/03/12 05:22:52;;;;;;;9.67;6.13;;;;;;;;;;4890833;29;20974;-84
2023/03/12 05:25:18;;;;;;;9.38;6.22;;;;;;;;;;4912891;29;20439;-85
2023/03/12 05:27:56;;;;;;;12.32;6.57;;;;;;;;;;4904054;29;20498;-85
2023/03/12 05:30:42;;;;;;;11.45;6.10;;;;;;;;;;4917593;29;20523;-84
2023/03/12 05:33:14;;;;;;;10.73;6.30;;;;;;;;;;4901155;29;20437;-84
2023/03/12 05:35:52;;;;;;;11.60;6.57;;;;;;;;;;4911923;29;20510;-84
2023/03/12 05:38:24;;;;;;;11.00;6.68;;;;;;;;;;4920856;29;20410;-84
2023/03/12 05:41:02;;;;;;;11.00;6.47;;;;;;;;;;4916992;29;20493;-84
2023/03/12 05:43:37;;;;;;;12.30;7.03;;;;;;;;;;4933611;29;20435;-84
2023/03/12 05:46:27;;;;;;;13.50;6.65;;;;;;;;;;4913013;29;20434;-85
2023/03/12 05:49:23;;;;;;;10.77;6.15;;;;;;;;;;4934618;29;20431;-85
2023/03/12 05:52:10;;;;;;;11.65;6.50;;;;;;;;;;4913435;29;20429;-87
2023/03/12 05:55:01;;;;;;;11.85;6.30;;;;;;;;;;4938070;29;20452;-85
2023/03/12 05:57:42;;;;;;;11.38;6.65;;;;;;;;;;4919678;29;20427;-86
2023/03/12 06:03:18;;;;;;;10.23;6.63;;;;;;;;;;4925483;29;20784;-86
2023/03/12 06:09:02;;;;;;;11.02;6.50;;;;;;;;;;4921907;29;20605;-86
2023/03/12 06:11:33;;;;;;;12.45;6.78;;;;;;;;;;4949741;29;20498;-86
2023/03/12 06:14:11;;;;;;;;;;;;;;;;;;;;;
2023/03/12 06:17:26;;;;;;;13.97;6.70;;;;;;;;;;4904180;29;20480;-85
2023/03/12 06:20:04;;;;;;;11.20;7.30;;;;;;;;;;4902966;29;20507;-86
2023/03/12 06:22:51;;;;;;;12.55;6.70;;;;;;;;;;4933304;29;20438;-86
2023/03/12 06:25:53;;;;;;;14.17;6.77;;;;;;;;;;4933872;29;20436;-87
2023/03/12 06:28:43;;;;;;;12.07;6.90;;;;;;;;;;4915281;29;20433;-85
2023/03/12 06:31:29;;;;;;;13.13;7.15;;;;;;;;;;4930043;29;20439;-85
2023/03/12 06:34:02;;;;;;;17.08;7.97;;;;;;;;;;4918198;29;20467;-86
2023/03/12 06:36:28;;;;;;;13.88;8.15;;;;;;;;;;4897152;29;20471;-85
2023/03/12 06:39:08;;;;;;;13.83;7.70;;;;;;;;;;4912710;29;20437;-85
2023/03/12 06:41:37;;;;;;;11.30;7.22;;;;;;;;;;4896931;29;20491;-85
2023/03/12 06:44:30;;;;;;;12.13;7.80;;;;;;;;;;4898429;29;20429;-85
2023/03/12 06:47:27;;;;;;;13.65;7.50;;;;;;;;;;4899135;29;20439;-85
2023/03/12 06:49:53;;;;;;;14.07;8.35;;;;;;;;;;4895090;29;20449;-86
2023/03/12 06:52:33;;;;;;;13.15;8.30;;;;;;;;;;4882723;29;20786;-85
2023/03/12 06:55:14;;;;;;;15.48;8.20;;;;;;;;;;4911987;29;20434;-85
2023/03/12 06:57:43;;;;;;;13.43;7.73;;;;;;;;;;4893646;29;20642;-85
2023/03/12 07:00:18;;;;;;;11.85;7.72;;;;;;;;;;4897926;29;20479;-85
2023/03/12 07:03:03;;;;;;;13.35;9.50;;;;;;;;;;4879217;29;20553;-85
2023/03/12 07:09:01;;;;;;;15.50;8.73;;;;;;;;;;4858251;29;20410;-84
2023/03/12 07:15:07;;;;;;;15.50;10.27;;;;;;;;;;4868905;29;20463;-84
2023/03/12 07:17:41;;;;;;;15.05;10.55;;;;;;;;;;4876058;29;20439;-85
2023/03/12 07:20:08;;;;;;;19.00;11.23;;;;;;;;;;4893082;29;20443;-83
2023/03/12 07:22:44;;;;;;;41.45;13.82;;;;;;;;;;4882159;29;20417;-83
2023/03/12 07:25:17;;;;;;;18.58;12.57;;;;;;;;;;4879688;29;20450;-83
2023/03/12 07:34:06;;;;;;;23.05;15.05;;;;;;;;;;4844787;29;20436;-86
2023/03/12 07:36:38;;;;;;;24.33;15.55;;;;;;;;;;4837156;29;20447;-87
2023/03/12 07:42:05;;;;;;;24.67;16.85;;;;;;;;;;4849967;29;20464;-86
2023/03/12 07:44:32;;;;;;;29.20;17.75;;;;;;;;;;4842971;29;20453;-85
2023/03/12 07:53:12;;;;;;;27.23;18.73;;;;;;;;;;4787801;29;20875;-84
2023/03/12 07:56:13;;;;;;;34.20;20.27;;;0.60;99.90;;;;;;4717682;30;20452;-84
2023/03/12 07:58:58;;;;;;;29.08;19.90;;;;;;;;;;4733536;29;20457;-83
2023/03/12 08:01:30;;;;;;;30.23;20.08;;;;;;;;;;4782177;29;20517;-82
2023/03/12 08:04:08;;;;;;;35.15;22.58;;;;;;;;;;4811411;29;20517;-85
2023/03/12 08:10:19;;;;;;;29.35;20.35;;;;;;;;;;4894692;29;20455;-85
2023/03/12 08:12:51;;;;;;;154.77;31.63;;;;;;;;;;4872231;29;20434;-86
2023/03/12 08:15:32;;;;;;;29.17;19.13;;;;;;;;;;4861629;29;21052;-87
2023/03/12 08:18:14;;;;;;;27.27;19.58;;;;;;;;;;4887104;29;20434;-88
2023/03/12 08:20:45;;;;;;;27.88;19.60;;;;;;;;;;4930226;29;20435;-84
2023/03/12 08:23:12;;;;;;;68.93;23.75;;;;;;;;;;4913312;29;20442;-86
2023/03/12 08:25:47;;;;;;;257.83;38.58;;;;;;;;;;4899535;29;20433;-86
2023/03/12 08:28:29;;;;;;;29.92;20.10;;;;;;;;;;4908867;29;20785;-85
2023/03/12 08:30:58;;;;;;;30.00;20.50;;;;;;;;;;4925589;29;20446;-85
2023/03/12 08:33:24;;;;;;;33.72;20.15;;;;;;;;;;4909075;29;20427;-85
2023/03/12 08:35:50;;;;;;;124.28;27.65;;;;;;;;;;4917538;29;20435;-85
2023/03/12 08:38:19;;;;;;;32.42;21.90;;;;;;;;;;4914867;29;21091;-84
2023/03/12 08:40:58;;;;;;;33.17;22.40;;;;;;;;;;4907932;29;20415;-82
2023/03/12 08:43:25;;;;;;;32.10;21.60;;;;;;;;;;4900291;29;20520;-83
2023/03/12 08:45:55;;;;;;;30.10;21.55;;;;;;;;;;4910473;29;20427;-84
2023/03/12 08:48:21;;;;;;;35.80;24.05;;;;;;;;;;4911860;29;20443;-82
2023/03/12 08:50:47;;;;;;;34.07;24.00;;;;;;;;;;4921066;29;20439;-82
2023/03/12 08:53:17;;;;;;;195.13;37.50;;;;;;;;;;4929661;29;20478;-82
2023/03/12 08:55:44;;;;;;;124.83;32.17;;;;;;;;;;4915444;29;20951;-83
2023/03/12 08:58:10;;;;;;;35.92;26.70;;;;;;;;;;4913128;29;20475;-82
2023/03/12 09:00:37;;;;;;;34.40;24.08;;;;;;;;;;4919817;29;20440;-84
2023/03/12 09:03:03;;;;;;;38.05;26.45;;;;;;;;;;4919897;29;20446;-82
2023/03/12 09:05:29;;;;;;;38.88;25.63;;;;;;;;;;4916392;29;20431;-83
2023/03/12 09:07:57;;;;;;;36.03;25.27;;;;;;;;;;4928510;29;20443;-83
2023/03/12 09:10:24;;;;;;;39.92;26.85;;;;;;;;;;4916277;29;20498;-84
2023/03/12 09:12:52;;;;;;;33.50;25.27;;;;;;;;;;4925592;29;20960;-84
2023/03/12 09:15:19;;;;;;;38.80;25.77;;;;;;;;;;4927470;29;20455;-84
2023/03/12 09:17:54;;;;;;;38.65;25.75;;;;;;;;;;4920284;29;20446;-84
2023/03/12 09:20:47;;;;;;;124.55;33.17;;;;;;;;;;4930312;29;20441;-83
2023/03/12 09:23:19;;;;;;;39.60;25.67;;;;;;;;;;4924421;29;20613;-82
2023/03/12 09:25:46;;;;;;;32.60;24.38;;;;;;;;;;4916475;29;20914;-82
2023/03/12 09:28:14;;;;;;;40.42;26.08;;;;;;;;;;4911242;29;20417;-82
2023/03/12 09:30:43;;;;;;;36.50;24.60;;;;;;;;;;4909240;29;20441;-83
2023/03/12 09:33:21;;;;;;;35.42;25.25;;;;;;;;;;4914865;29;20427;-83
2023/03/12 09:36:02;;;;;;;34.88;24.42;;;;;;;;;;4923962;29;20474;-83
2023/03/12 09:41:48;;;;;;;33.72;26.27;;;;;;;;;;4914675;29;20446;-82
2023/03/12 09:44:37;;;;;;;33.63;22.95;;;;;;;;;;4911419;29;20450;-82
2023/03/12 09:47:21;;;;;;;32.70;22.33;;;;;;;;;;4919485;29;20428;-82
2023/03/12 09:49:53;;;;;;;34.03;22.70;;;;;;;;;;4921778;29;20437;-82
2023/03/12 09:52:30;;;;;;;32.03;23.47;;;;;;;;;;4929937;29;20709;-81
2023/03/12 09:55:03;;;;;;;33.10;22.05;;;;;;;;;;4930685;28;20457;-81
2023/03/12 09:57:32;;;;;;;34.73;21.40;;;;;;;;;;4916096;29;21020;-81
2023/03/12 10:00:01;;;;;;;30.50;21.27;;;;;;;;;;4924026;29;20449;-82
2023/03/12 10:02:46;;;;;;;31.58;21.50;;;;;;;;;;4908977;28;20454;-81
2023/03/12 10:05:21;;;;;;;29.65;20.38;;;;;;;;;;4921183;29;20483;-81
2023/03/12 10:07:52;;;;;;;33.35;20.85;;;;;;;;;;4915988;29;20439;-81
2023/03/12 10:10:18;;;;;;;80.05;24.85;;;;;;;;;;4916642;29;20432;-81
2023/03/12 10:12:54;;;;;;;31.88;20.38;;;;;;;;;;4931693;29;20804;-80
2023/03/12 10:15:35;;;;;;;32.92;20.90;;;;;;;;;;4933354;29;20820;-80
2023/03/12 10:18:14;;;;;;;28.83;20.63;;;;;;;;;;4931991;29;20455;-78
2023/03/12 10:20:49;;;;;;;167.93;28.63;;;;;;;;;;4917994;29;20788;-79
2023/03/12 10:23:41;;;;;;;31.70;20.92;;;;;;;;;;4932974;29;20935;-79
2023/03/12 10:26:14;;;;;;;51.53;22.52;;;;;;;;;;4930202;29;20920;-79
2023/03/12 10:28:42;;;;;;;94.32;24.20;;;;;;;;;;4922749;29;20468;-79
2023/03/12 10:31:15;;;;;;;247.02;35.25;;;;;;;;;;4929418;29;20485;-82
2023/03/12 10:33:47;;;;;;;30.45;19.88;;;;;;;;;;4933031;29;20439;-80
2023/03/12 10:36:21;;;;;;;35.63;21.73;;;;;;;;;;4930013;29;20442;-79
2023/03/12 10:38:49;;;;;;;34.00;22.20;;;;;;;;;;4929324;29;20954;-80
2023/03/12 10:41:24;;;;;;;33.90;21.63;;;;;;;;;;4931245;29;20434;-79
2023/03/12 10:43:50;;;;;;;33.80;20.88;;;;;;;;;;4930315;29;20555;-80
2023/03/12 10:46:38;;;;;;;30.45;20.52;;;;;;;;;;4899266;29;20918;-80
2023/03/12 10:49:23;;;;;;;30.60;19.73;;;;;;;;;;4920360;29;20518;-80
2023/03/12 10:51:59;;;;;;;45.75;22.23;;;;;;;;;;4931486;29;20436;-79
2023/03/12 10:54:36;;;;;;;33.40;21.33;;;;;;;;;;4930584;29;20431;-79
2023/03/12 10:57:02;;;;;;;32.10;21.40;;;;;;;;;;4917310;29;20419;-79
2023/03/12 10:59:30;;;;;;;31.67;21.45;;;;;;;;;;4928759;29;20419;-79
2023/03/12 11:01:56;;;;;;;49.55;23.02;;;;;;;;;;4914476;29;20431;-79
2023/03/12 11:04:27;;;;;;;107.75;27.00;;;;;;;;;;4907479;29;20435;-79
2023/03/12 11:07:04;;;;;;;38.47;22.35;;;;;;;;;;4906822;29;20438;-79
2023/03/12 11:09:30;;;;;;;34.20;21.88;;;;;;;;;;4929271;29;20506;-79
2023/03/12 11:11:56;;;;;;;33.00;21.50;;;;;;;;;;4917170;29;20515;-79
2023/03/12 11:14:24;;;;;;;38.83;23.00;;;;;;;;;;4931901;29;20448;-79
2023/03/12 11:16:50;;;;;;;273.42;44.78;;;;;;;;;;4914005;29;20520;-79
2023/03/12 11:19:30;;;;;;;37.22;22.00;;;;;;;;;;4911171;29;20423;-79
2023/03/12 11:21:58;;;;;;;38.55;23.20;;;;;;;;;;4912542;29;20430;-79
2023/03/12 11:24:25;;;;;;;38.63;24.25;;;;;;;;;;4927126;29;20465;-79
2023/03/12 11:26:55;;;;;;;44.45;24.35;;;;;;;;;;4911979;29;20441;-80
2023/03/12 11:29:24;;;;;;;40.38;23.50;;;;;;;;;;4926938;29;20427;-80
2023/03/12 11:32:03;;;;;;;42.13;24.47;;;;;;;;;;4915872;29;20535;-80
2023/03/12 11:34:31;;;;;;;47.57;25.37;;;;;;;;;;4948033;29;20407;-80
2023/03/12 11:37:20;;;;;;;47.38;24.80;;;;;;;;;;4929405;29;20424;-79
2023/03/12 11:40:11;;;;;;;133.13;30.15;;;4.40;99.90;;;;;;4912889;29;20482;-79
2023/03/12 11:42:51;;;;;;;44.05;24.65;;;;;;;;;;4915032;29;20463;-80
2023/03/12 11:45:36;;;;;;;43.88;24.42;;;;;;;;;;4913652;29;20445;-81
2023/03/12 11:48:06;;;;;;;41.85;23.90;;;;;;;;;;4928330;29;20425;-81
2023/03/12 11:50:52;;;;;;;45.33;24.77;;;;;;;;;;4926350;29;20526;-80
2023/03/12 11:53:36;;;;;;;57.03;24.85;;;;;;;;;;4928288;29;20435;-80
2023/03/12 11:56:37;;;;;;;44.17;24.30;;;;;;;;;;4927862;29;20597;-80
2023/03/12 11:59:21;;;;;;;41.90;24.92;;;;;;;;;;4928883;29;20428;-80
2023/03/12 12:04:58;;;;;;;33.92;21.40;;;;;;;;;;4932801;29;20434;-81
2023/03/12 12:08:00;;;;;;;47.97;23.20;;;;;;;;;;4912458;29;20425;-81
2023/03/12 12:10:29;;;;;;;80.35;26.60;;;;;;;;;;4930183;29;20442;-81
2023/03/12 12:13:12;;;;;;;42.45;23.98;;;;;;;;;;4946388;28;20440;-81
2023/03/12 12:15:57;;;;;;;40.70;22.80;;;;;;;;;;4930409;29;20442;-81
2023/03/12 12:18:48;;;;;;;39.65;22.60;;;6.00;99.90;;;;;;4916256;29;20760;-81
2023/03/12 12:21:32;;;;;;;44.05;23.20;;;;;;;;;;4922464;29;20580;-82
2023/03/12 12:24:16;;;;;;;41.60;24.10;;;;;;;;;;4898765;29;20480;-81
2023/03/12 12:27:00;;;;;;;49.45;24.73;;;;;;;;;;4927593;29;20435;-82
2023/03/12 12:29:37;;;;;;;46.17;24.58;;;;;;;;;;4913290;29;20432;-82
2023/03/12 12:35:09;;;;;;;49.45;24.70;;;;;;;;;;4923234;29;20435;-82
2023/03/12 12:37:57;;;;;;;52.72;24.35;;;;;;;;;;4924714;29;20439;-82
2023/03/12 12:40:56;;;;;;;46.80;22.73;;;6.90;99.90;;;;;;4927169;29;20462;-82
2023/03/12 12:44:03;;;;;;;54.65;24.05;;;;;;;;;;4919477;29;20439;-82
2023/03/12 12:47:19;;;;;;;47.40;23.25;;;;;;;;;;4872208;29;20425;-82
2023/03/12 12:49:56;;;;;;;38.38;21.10;;;;;;;;;;4844879;29;20450;-82
2023/03/12 12:52:38;;;;;;;42.63;21.70;;;;;;;;;;4840897;29;20956;-81
2023/03/12 12:55:24;;;;;;;39.20;20.50;;;;;;;;;;4861603;29;20469;-82
2023/03/12 12:58:12;;;;;;;53.90;20.77;;;;;;;;;;4838910;29;21089;-83
2023/03/12 13:00:44;;;;;;;40.55;19.13;;;;;;;;;;4848309;29;20422;-84
2023/03/12 13:03:24;;;;;;;39.53;18.27;;;;;;;;;;4910875;29;20430;-84
2023/03/12 13:06:16;;;;;;;39.00;16.93;;;;;;;;;;4916750;29;20486;-84
2023/03/12 13:08:49;;;;;;;41.15;16.80;;;;;;;;;;4919361;29;20462;-83
2023/03/12 13:11:15;;;;;;;39.33;16.42;;;;;;;;;;4930594;29;20443;-85
2023/03/12 13:13:56;;;;;;;37.25;14.85;;;;;;;;;;4930157;29;20508;-83
2023/03/12 13:16:39;;;;;;;33.13;13.27;;;;;;;;;;4935727;29;21019;-84
2023/03/12 13:19:26;;;;;;;30.83;12.32;;;8.10;99.90;;;;;;4919874;29;20411;-84
2023/03/12 13:22:20;;;;;;;31.63;11.90;;;;;;;;;;4930775;29;20435;-84
2023/03/12 13:25:09;;;;;;;36.50;11.43;;;;;;;;;;4917273;29;20512;-83
2023/03/12 13:27:39;;;;;;;31.00;10.75;;;;;;;;;;4919153;29;21196;-83
2023/03/12 13:30:27;;;;;;;26.08;11.05;;;;;;;;;;4921991;29;22455;-84
2023/03/12 13:32:56;;;;;;;29.50;10.95;;;;;;;;;;4930090;29;20927;-83
2023/03/12 13:35:42;;;;;;;27.20;10.40;;;;;;;;;;4923871;29;20537;-84
2023/03/12 13:38:14;;;;;;;26.27;9.63;;;;;;;;;;4892683;29;20460;-83
2023/03/12 13:41:18;;;;;;;27.23;10.20;;;;;;;;;;4909139;29;20439;-83
2023/03/12 13:43:48;;;;;;;27.90;9.93;;;;;;;;;;4896493;29;20428;-83
2023/03/12 13:46:14;;;;;;;28.83;9.73;;;;;;;;;;4885243;29;20508;-83
2023/03/12 13:48:57;;;;;;;30.80;9.20;;;;;;;;;;4912452;29;20424;-84
2023/03/12 13:51:24;;;;;;;31.88;9.30;;;;;;;;;;4920547;29;20436;-83
2023/03/12 13:53:54;;;;;;;26.98;8.95;;;;;;;;;;4918301;29;20435;-82
2023/03/12 13:56:25;;;;;;;33.15;9.20;;;;;;;;;;4935604;29;20431;-81
2023/03/12 13:59:07;;;;;;;32.47;8.37;;;;;;;;;;4908538;29;20541;-82
2023/03/12 14:01:39;;;;;;;35.42;8.73;;;;;;;;;;4927037;29;20427;-81
2023/03/12 14:04:08;;;;;;;28.20;8.88;;;;;;;;;;4914890;29;20770;-82
2023/03/12 14:06:45;;;;;;;32.70;8.90;;;;;;;;;;4907980;29;20935;-82
2023/03/12 14:09:23;;;;;;;34.53;9.05;;;;;;;;;;4932136;29;21499;-82
2023/03/12 14:12:19;;;;;;;28.85;8.90;;;;;;;;;;4905254;29;20813;-82
2023/03/12 14:28:29;;;;;;;27.55;8.77;;;;;;;;;;4927686;29;20414;-83
2023/03/12 14:46:02;;;;;;;;;;;;;;;;;;;;;
2023/03/12 14:49:35;;;;;;;33.17;7.68;;;;;;;;;;4788468;29;21062;-82
2023/03/12 14:52:14;;;;;;;33.07;7.77;;;;;;;;;;4788511;29;20444;-82
2023/03/12 14:54:54;;;;;;;31.23;7.63;;;;;;;;;;4828637;29;20438;-82
2023/03/12 14:57:43;;;;;;;33.42;7.18;;;;;;;;;;4824758;29;20814;-82
2023/03/12 15:00:48;;;;;;;;;;;;;;;;;;;;;
2023/03/12 15:03:30;;;;;;;;;;;;;;;;;;;;;
2023/03/12 15:06:06;;;;;;;34.00;7.50;;;;;;;;;;4929737;29;20423;-82
2023/03/12 15:08:33;;;;;;;36.97;7.85;;;;;;;;;;4916871;29;20426;-82
2023/03/12 15:11:04;;;;;;;36.65;8.40;;;;;;;;;;4915131;29;20477;-82
2023/03/12 15:13:37;;;;;;;33.42;8.05;;;;;;;;;;4912027;29;20914;-82
2023/03/12 15:16:11;;;;;;;29.45;7.13;;;;;;;;;;4918462;29;20911;-81
2023/03/12 15:18:47;;;;;;;;;;;;;;;;;;;;;
2023/03/12 15:21:14;;;;;;;35.78;7.10;;;;;;;;;;4935087;29;20435;-82
2023/03/12 15:23:42;;;;;;;31.13;8.15;;;;;;;;;;4916433;29;20462;-81
2023/03/12 15:26:17;;;;;;;32.85;8.18;;;;;;;;;;4934567;29;20899;-81
2023/03/12 15:28:54;;;;;;;30.40;7.88;;;;;;;;;;4930343;29;20446;-82
2023/03/12 15:31:22;;;;;;;33.92;7.18;;;;;;;;;;4932557;29;20795;-81
2023/03/12 15:33:59;;;;;;;33.87;7.47;;;;;;;;;;4915863;29;20523;-81
2023/03/12 15:36:27;;;;;;;34.35;7.60;;;;;;;;;;4931993;29;20424;-82
2023/03/12 15:39:21;;;;;;;;;;;;;;;;;;;;;
2023/03/12 15:42:19;;;;;;;36.73;7.70;;;;;;;;;;4888141;29;20427;-82
2023/03/12 15:44:46;;;;;;;34.70;7.90;;;;;;;;;;4927166;29;20776;-82
2023/03/12 15:47:14;;;;;;;32.47;7.82;;;;;;;;;;4914991;29;20430;-81
2023/03/12 15:49:41;;;;;;;36.08;7.85;;;;;;;;;;4914820;29;20948;-81
2023/03/12 15:52:25;;;;;;;36.33;7.20;;;;;;;;;;4910184;29;20437;-81
2023/03/12 15:55:03;;;;;;;33.05;7.20;;;;;;;;;;4918266;29;20431;-82
2023/03/12 15:57:33;;;;;;;34.70;7.23;;;;;;;;;;4910695;29;20944;-82
2023/03/12 16:00:25;;;;;;;;;;;;;;;;;;;;;
2023/03/12 16:02:56;;;;;;;39.50;7.88;;;;;;;;;;4928817;29;20431;-81
2023/03/12 16:05:34;;;;;;;34.67;7.75;;;;;;;;;;4927234;29;20424;-81
2023/03/12 16:08:25;;;;;;;;;;;;;;;;;;;;;
2023/03/12 16:10:59;;;;;;;37.97;7.80;;;;;;;;;;4929032;29;20439;-86
2023/03/12 16:16:58;;;;;;;;;;;;;;;;;;;;;
2023/03/12 16:19:28;;;;;;;36.67;9.20;;;;;;;;;;4934688;29;20438;-85
2023/03/12 16:21:56;;;;;;;36.42;8.05;;;;;;;;;;4925370;29;20427;-81
2023/03/12 16:24:33;;;;;;;40.67;7.88;;;;;;;;;;4924457;29;20482;-80
2023/03/12 16:27:15;;;;;;;;;;;;;;;;;;;;;
2023/03/12 16:29:42;;;;;;;37.10;8.13;;;;;;;;;;4943034;29;20516;-81
2023/03/12 16:32:12;;;;;;;40.92;7.97;;;;;;;;;;4934603;29;20441;-81
2023/03/12 16:34:42;;;;;;;38.13;7.43;;;;;;;;;;4931145;29;20436;-80
2023/03/12 16:37:09;;;;;;;44.72;8.10;;;;;;;;;;4915494;29;20442;-82
2023/03/12 16:39:36;;;;;;;36.00;7.97;;;;;;;;;;4919837;29;20434;-82
2023/03/12 16:42:02;;;;;;;35.42;8.73;;;;;;;;;;4921754;29;20457;-81
2023/03/12 16:44:30;;;;;;;38.90;7.95;;;;;;;;;;4920915;29;20435;-80
2023/03/12 16:46:57;;;;;;;37.33;7.88;;;;;;;;;;4936378;29;20753;-80
2023/03/12 16:49:23;;;;;;;36.70;8.15;;;;;;;;;;4934059;29;20422;-81
2023/03/12 16:51:51;;;;;;;32.70;7.73;;;;;;;;;;4939691;29;20451;-80